createdAt,value
2019-03-30T00:01:06.086Z,2.80
2019-03-30T00:03:53.714Z,2.70
2019-03-30T00:06:41.545Z,2.70
2019-03-30T00:09:29.600Z,2.70
2019-03-30T00:12:17.442Z,2.70
2019-03-30T00:15:06.056Z,2.70
2019-03-30T00:17:54.232Z,2.70
2019-03-30T00:20:42.346Z,2.60
2019-03-30T00:23:30.078Z,2.50
2019-03-30T00:26:17.941Z,2.50
2019-03-30T00:29:05.885Z,2.50
2019-03-30T00:31:53.968Z,2.50
2019-03-30T00:34:42.075Z,2.60
2019-03-30T00:37:29.943Z,2.60
2019-03-30T00:40:18.031Z,2.60
2019-03-30T00:43:05.865Z,2.50
2019-03-30T00:45:53.725Z,2.50
2019-03-30T00:48:41.701Z,2.40
2019-03-30T00:51:29.710Z,2.40
2019-03-30T00:54:17.604Z,2.40
2019-03-30T00:57:05.537Z,2.20
2019-03-30T00:59:53.126Z,2.20
2019-03-30T01:02:41.070Z,2.10
2019-03-30T01:05:29.145Z,2.10
2019-03-30T01:08:17.061Z,2.10
2019-03-30T01:11:04.743Z,2.10
2019-03-30T01:13:52.587Z,2.10
2019-03-30T01:16:40.482Z,2.10
2019-03-30T01:19:28.240Z,2.10
2019-03-30T01:22:16.108Z,2.00
2019-03-30T01:25:06.620Z,1.90
2019-03-30T01:27:54.267Z,1.90
2019-03-30T01:30:42.336Z,1.90
2019-03-30T01:33:30.221Z,1.90
2019-03-30T01:36:18.071Z,1.90
2019-03-30T01:39:07.253Z,1.80
2019-03-30T01:41:55.339Z,1.80
2019-03-30T01:44:43.078Z,1.80
2019-03-30T01:47:30.826Z,1.80
2019-03-30T01:50:19.069Z,1.70
2019-03-30T01:53:07.138Z,1.70
2019-03-30T01:55:54.633Z,1.70
2019-03-30T01:58:42.505Z,1.70
2019-03-30T02:01:30.701Z,1.60
2019-03-30T02:04:18.685Z,1.60
2019-03-30T02:07:06.543Z,1.60
2019-03-30T02:09:54.394Z,1.60
2019-03-30T02:12:42.324Z,1.60
2019-03-30T02:15:30.255Z,1.60
2019-03-30T02:18:17.983Z,1.70
2019-03-30T02:21:05.926Z,1.70
2019-03-30T02:23:53.873Z,1.60
2019-03-30T02:26:41.607Z,1.50
2019-03-30T02:29:29.537Z,1.50
2019-03-30T02:32:17.362Z,1.60
2019-03-30T02:35:06.856Z,1.50
2019-03-30T02:37:54.770Z,1.40
2019-03-30T02:40:42.359Z,1.40
2019-03-30T02:43:30.053Z,1.30
2019-03-30T02:46:18.180Z,1.40
2019-03-30T02:49:06.250Z,1.40
2019-03-30T02:51:54.045Z,-0.50
2019-03-30T02:54:41.679Z,1.20
2019-03-30T02:57:29.484Z,1.20
2019-03-30T03:00:17.818Z,1.20
2019-03-30T03:03:05.696Z,1.30
2019-03-30T03:05:53.688Z,1.20
2019-03-30T03:08:41.325Z,1.10
2019-03-30T03:11:29.382Z,1.10
2019-03-30T03:14:17.062Z,1.10
2019-03-30T03:17:05.019Z,1.00
2019-03-30T03:19:52.962Z,1.00
2019-03-30T03:22:40.860Z,0.90
2019-03-30T03:25:28.456Z,0.90
2019-03-30T03:28:16.083Z,0.90
2019-03-30T03:31:03.875Z,0.90
2019-03-30T03:33:51.486Z,0.90
2019-03-30T03:36:39.061Z,0.80
2019-03-30T03:39:26.771Z,0.80
2019-03-30T03:42:14.811Z,0.80
2019-03-30T03:45:02.819Z,0.80
2019-03-30T03:47:50.706Z,0.70
2019-03-30T03:50:47.063Z,0.70
2019-03-30T03:53:36.025Z,0.70
2019-03-30T03:56:25.642Z,0.70
2019-03-30T03:59:14.178Z,0.70
2019-03-30T04:02:04.082Z,0.70
2019-03-30T04:04:52.822Z,0.80
2019-03-30T04:07:41.279Z,0.80
2019-03-30T04:10:32.066Z,0.70
2019-03-30T04:13:20.559Z,0.70
2019-03-30T04:16:08.645Z,0.70
2019-03-30T04:18:56.726Z,0.70
2019-03-30T04:21:45.011Z,0.70
2019-03-30T04:24:33.114Z,0.60
2019-03-30T04:27:20.928Z,0.60
2019-03-30T04:30:09.235Z,0.60
2019-03-30T04:32:56.883Z,0.60
2019-03-30T04:35:44.563Z,0.50
2019-03-30T04:38:32.565Z,0.50
2019-03-30T04:41:20.511Z,0.50
2019-03-30T04:44:08.274Z,0.50
2019-03-30T04:46:56.204Z,0.40
2019-03-30T04:49:44.074Z,0.40
2019-03-30T04:52:31.951Z,0.40
2019-03-30T04:55:19.886Z,0.50
2019-03-30T04:58:09.433Z,0.50
2019-03-30T05:00:57.247Z,0.40
2019-03-30T05:03:44.936Z,0.30
2019-03-30T05:06:32.835Z,0.40
2019-03-30T05:09:20.590Z,0.40
2019-03-30T05:12:08.591Z,0.40
2019-03-30T05:14:56.730Z,0.50
2019-03-30T05:17:47.648Z,0.40
2019-03-30T05:20:34.011Z,0.40
2019-03-30T05:23:21.906Z,0.40
2019-03-30T05:26:10.046Z,0.40
2019-03-30T05:28:57.804Z,0.40
2019-03-30T05:31:45.634Z,0.50
2019-03-30T05:34:33.535Z,0.60
2019-03-30T05:37:21.381Z,0.70
2019-03-30T05:40:09.722Z,0.80
2019-03-30T05:42:57.308Z,1.00
2019-03-30T05:45:45.137Z,1.20
2019-03-30T05:48:33.013Z,1.20
2019-03-30T05:51:21.033Z,1.20
2019-03-30T05:54:08.937Z,1.30
2019-03-30T05:56:56.689Z,1.40
2019-03-30T05:59:44.322Z,1.50
2019-03-30T06:02:31.944Z,1.60
2019-03-30T06:05:19.760Z,1.70
2019-03-30T06:08:07.501Z,1.90
2019-03-30T06:10:55.432Z,2.00
2019-03-30T06:13:43.208Z,2.20
2019-03-30T06:16:31.190Z,2.30
2019-03-30T06:19:18.805Z,2.50
2019-03-30T06:22:06.805Z,2.60
2019-03-30T06:24:54.668Z,2.80
2019-03-30T06:27:42.566Z,2.90
2019-03-30T06:30:30.443Z,3.10
2019-03-30T06:33:18.149Z,3.20
2019-03-30T06:36:05.729Z,3.30
2019-03-30T06:38:53.460Z,3.40
2019-03-30T06:41:41.290Z,3.60
2019-03-30T06:44:29.066Z,3.70
2019-03-30T06:47:16.929Z,3.80
2019-03-30T06:50:06.565Z,3.90
2019-03-30T06:52:57.865Z,4.10
2019-03-30T06:55:43.916Z,4.30
2019-03-30T06:58:31.794Z,4.60
2019-03-30T07:01:20.768Z,4.70
2019-03-30T07:04:11.134Z,4.90
2019-03-30T07:06:57.602Z,5.00
2019-03-30T07:09:48.712Z,5.10
2019-03-30T07:12:40.729Z,5.30
2019-03-30T07:15:30.517Z,5.50
2019-03-30T07:18:18.625Z,5.60
2019-03-30T07:21:06.262Z,5.80
2019-03-30T07:23:54.247Z,5.90
2019-03-30T07:26:42.335Z,6.10
2019-03-30T07:29:29.923Z,6.40
2019-03-30T07:32:18.105Z,6.50
2019-03-30T07:35:06.797Z,6.60
2019-03-30T07:37:54.468Z,6.70
2019-03-30T07:40:42.270Z,7.00
2019-03-30T07:43:29.853Z,7.10
2019-03-30T07:46:19.559Z,7.20
2019-03-30T07:49:07.457Z,7.40
2019-03-30T07:51:55.137Z,7.50
2019-03-30T07:54:42.717Z,7.70
2019-03-30T07:57:30.496Z,7.90
2019-03-30T08:00:18.547Z,8.20
2019-03-30T08:03:06.153Z,8.40
2019-03-30T08:05:54.476Z,8.70
2019-03-30T08:08:42.751Z,8.80
2019-03-30T08:11:30.853Z,9.10
2019-03-30T08:14:18.452Z,9.30
2019-03-30T08:17:06.293Z,9.80
2019-03-30T08:19:53.993Z,9.80
2019-03-30T08:22:41.992Z,10.10
2019-03-30T08:25:29.685Z,10.20
2019-03-30T08:28:17.621Z,10.40
2019-03-30T08:31:05.160Z,10.60
2019-03-30T08:33:53.357Z,10.80
2019-03-30T08:36:41.159Z,10.90
2019-03-30T08:39:29.109Z,11.10
2019-03-30T08:42:16.689Z,11.40
2019-03-30T08:45:07.182Z,11.50
2019-03-30T08:47:54.921Z,11.80
2019-03-30T08:50:42.773Z,12.00
2019-03-30T08:53:30.608Z,12.20
2019-03-30T08:56:18.542Z,12.40
2019-03-30T08:59:06.225Z,12.50
2019-03-30T09:01:53.773Z,12.70
2019-03-30T09:04:41.542Z,12.90
2019-03-30T09:07:29.356Z,13.00
2019-03-30T09:10:17.305Z,13.10
2019-03-30T09:13:05.236Z,13.20
2019-03-30T09:15:53.271Z,13.20
2019-03-30T09:18:41.231Z,13.30
2019-03-30T09:21:28.987Z,13.40
2019-03-30T09:24:16.880Z,13.50
2019-03-30T09:27:04.775Z,13.60
2019-03-30T09:29:52.460Z,13.80
2019-03-30T09:32:40.063Z,14.00
2019-03-30T09:35:27.864Z,14.10
2019-03-30T09:38:15.777Z,14.20
2019-03-30T09:41:03.850Z,14.40
2019-03-30T09:43:51.633Z,14.50
2019-03-30T09:46:39.205Z,14.60
2019-03-30T09:49:26.880Z,14.60
2019-03-30T09:52:14.676Z,14.80
2019-03-30T09:55:03.124Z,14.90
2019-03-30T09:57:51.077Z,15.00
2019-03-30T10:00:38.746Z,15.10
2019-03-30T10:03:26.464Z,15.10
2019-03-30T10:06:14.094Z,15.30
2019-03-30T10:09:01.823Z,15.40
2019-03-30T10:11:49.585Z,15.40
2019-03-30T10:14:37.309Z,15.40
2019-03-30T10:17:25.021Z,15.50
2019-03-30T10:20:13.169Z,15.50
2019-03-30T10:23:00.977Z,15.70
2019-03-30T10:25:48.928Z,15.70
2019-03-30T10:28:36.624Z,15.80
2019-03-30T10:31:24.369Z,16.00
2019-03-30T10:34:12.094Z,16.00
2019-03-30T10:36:59.772Z,16.10
2019-03-30T10:39:47.332Z,16.20
2019-03-30T10:42:35.144Z,16.30
2019-03-30T10:45:23.229Z,16.40
2019-03-30T10:48:11.076Z,16.30
2019-03-30T10:50:58.601Z,16.40
2019-03-30T10:53:46.381Z,16.50
2019-03-30T10:56:34.588Z,16.60
2019-03-30T10:59:22.578Z,16.70
2019-03-30T11:02:10.474Z,16.70
2019-03-30T11:04:58.225Z,16.80
2019-03-30T11:07:46.426Z,16.90
2019-03-30T11:10:34.280Z,17.00
2019-03-30T11:13:21.962Z,17.20
2019-03-30T11:16:09.981Z,17.30
2019-03-30T11:18:57.960Z,17.50
2019-03-30T11:21:45.789Z,17.50
2019-03-30T11:24:33.413Z,17.50
2019-03-30T11:27:21.492Z,17.60
2019-03-30T11:30:10.394Z,17.70
2019-03-30T11:32:58.081Z,17.80
2019-03-30T11:35:45.857Z,17.90
2019-03-30T11:38:33.833Z,18.00
2019-03-30T11:41:24.809Z,18.10
2019-03-30T11:44:10.870Z,18.20
2019-03-30T11:46:58.575Z,18.30
2019-03-30T11:49:46.399Z,18.40
2019-03-30T11:52:34.288Z,18.40
2019-03-30T11:55:22.610Z,18.40
2019-03-30T11:58:10.861Z,18.40
2019-03-30T12:00:58.565Z,18.50
2019-03-30T12:03:46.582Z,18.60
2019-03-30T12:06:34.213Z,18.60
2019-03-30T12:09:22.086Z,18.80
2019-03-30T12:12:09.733Z,19.00
2019-03-30T12:14:57.718Z,19.20
2019-03-30T12:17:45.421Z,19.30
2019-03-30T12:20:33.310Z,19.30
2019-03-30T12:23:20.997Z,19.40
2019-03-30T12:26:08.935Z,19.50
2019-03-30T12:28:56.785Z,19.60
2019-03-30T12:31:44.341Z,19.70
2019-03-30T12:34:32.247Z,19.80
2019-03-30T12:37:20.207Z,20.20
2019-03-30T12:40:08.295Z,20.20
2019-03-30T12:42:55.917Z,20.40
2019-03-30T12:45:43.820Z,20.50
2019-03-30T12:48:31.853Z,20.50
2019-03-30T12:51:19.769Z,20.40
2019-03-30T12:54:07.737Z,20.60
2019-03-30T12:56:55.315Z,20.70
2019-03-30T12:59:43.428Z,20.80
2019-03-30T13:02:30.929Z,20.80
2019-03-30T13:05:18.576Z,20.80
2019-03-30T13:08:06.443Z,20.90
2019-03-30T13:10:54.349Z,20.80
2019-03-30T13:13:42.121Z,20.70
2019-03-30T13:16:30.138Z,20.70
2019-03-30T13:19:18.006Z,20.80
2019-03-30T13:22:05.754Z,20.60
2019-03-30T13:24:53.334Z,20.60
2019-03-30T13:27:41.040Z,20.80
2019-03-30T13:30:29.204Z,20.90
2019-03-30T13:33:16.745Z,21.10
2019-03-30T13:36:04.766Z,21.20
2019-03-30T13:38:52.834Z,21.20
2019-03-30T13:41:40.998Z,21.20
2019-03-30T13:44:28.633Z,21.40
2019-03-30T13:47:16.511Z,21.40
2019-03-30T13:50:05.777Z,21.40
2019-03-30T13:52:53.768Z,21.50
2019-03-30T13:55:41.310Z,21.60
2019-03-30T13:58:28.761Z,21.60
2019-03-30T14:01:16.594Z,21.80
2019-03-30T14:04:04.685Z,21.80
2019-03-30T14:06:52.510Z,21.40
2019-03-30T14:09:40.354Z,21.30
2019-03-30T14:12:28.237Z,21.20
2019-03-30T14:15:16.037Z,21.10
2019-03-30T14:18:03.897Z,21.20
2019-03-30T14:20:51.754Z,21.30
2019-03-30T14:23:39.309Z,21.40
2019-03-30T14:26:31.636Z,21.40
2019-03-30T14:29:16.945Z,21.40
2019-03-30T14:32:04.880Z,21.40
2019-03-30T14:34:52.904Z,21.30
2019-03-30T14:37:40.891Z,21.20
2019-03-30T14:40:28.686Z,21.20
2019-03-30T14:43:16.547Z,21.10
2019-03-30T14:46:04.249Z,20.90
2019-03-30T14:48:52.092Z,20.90
2019-03-30T14:51:39.953Z,20.90
2019-03-30T14:54:27.891Z,20.90
2019-03-30T14:57:15.762Z,20.80
2019-03-30T15:00:05.613Z,20.80
2019-03-30T15:02:53.599Z,20.70
2019-03-30T15:05:41.442Z,20.60
2019-03-30T15:08:29.337Z,20.50
2019-03-30T15:11:17.270Z,20.50
2019-03-30T15:14:05.183Z,20.50
2019-03-30T15:16:53.015Z,20.40
2019-03-30T15:19:40.749Z,20.30
2019-03-30T15:22:28.425Z,20.30
2019-03-30T15:25:16.499Z,20.30
2019-03-30T15:28:04.478Z,20.30
2019-03-30T15:30:52.242Z,20.20
2019-03-30T15:33:40.253Z,20.00
2019-03-30T15:36:28.113Z,19.90
2019-03-30T15:39:18.765Z,19.90
2019-03-30T15:42:06.576Z,19.90
2019-03-30T15:44:54.565Z,19.90
2019-03-30T15:47:42.675Z,19.90
2019-03-30T15:50:30.536Z,19.90
2019-03-30T15:53:18.383Z,19.90
2019-03-30T15:56:06.221Z,19.80
2019-03-30T15:58:54.186Z,19.70
2019-03-30T16:01:41.789Z,19.60
2019-03-30T16:04:29.777Z,19.60
2019-03-30T16:07:17.649Z,19.60
2019-03-30T16:10:06.757Z,19.60
2019-03-30T16:12:54.405Z,19.50
2019-03-30T16:15:44.527Z,19.40
2019-03-30T16:18:32.130Z,19.40
2019-03-30T16:21:20.062Z,19.40
2019-03-30T16:24:07.730Z,19.30
2019-03-30T16:26:55.427Z,19.20
2019-03-30T16:29:43.300Z,19.10
2019-03-30T16:32:31.221Z,19.10
2019-03-30T16:35:18.954Z,19.00
2019-03-30T16:38:06.618Z,19.00
2019-03-30T16:40:54.593Z,19.00
2019-03-30T16:43:42.778Z,18.90
2019-03-30T16:46:30.481Z,18.70
2019-03-30T16:49:18.282Z,18.60
2019-03-30T16:52:06.300Z,18.50
2019-03-30T16:54:54.369Z,18.40
2019-03-30T16:57:43.958Z,18.40
2019-03-30T17:00:33.336Z,18.30
2019-03-30T17:03:21.001Z,18.30
2019-03-30T17:06:08.706Z,18.10
2019-03-30T17:08:56.845Z,18.00
2019-03-30T17:11:44.776Z,17.90
2019-03-30T17:14:32.770Z,17.80
2019-03-30T17:17:20.733Z,17.70
2019-03-30T17:20:08.793Z,17.70
2019-03-30T17:22:58.799Z,17.70
2019-03-30T17:25:46.346Z,17.50
2019-03-30T17:28:34.417Z,17.40
2019-03-30T17:31:22.291Z,17.20
2019-03-30T17:34:10.142Z,17.00
2019-03-30T17:36:57.753Z,16.80
2019-03-30T17:39:45.481Z,16.70
2019-03-30T17:42:33.718Z,16.50
2019-03-30T17:45:21.426Z,16.40
2019-03-30T17:48:08.975Z,16.20
2019-03-30T17:50:58.365Z,16.00
2019-03-30T17:53:46.470Z,15.60
2019-03-30T17:56:34.434Z,15.40
2019-03-30T17:59:23.840Z,15.10
2019-03-30T18:02:11.497Z,14.80
2019-03-30T18:04:59.240Z,14.50
2019-03-30T18:07:47.017Z,14.30
2019-03-30T18:10:34.813Z,14.00
2019-03-30T18:13:22.646Z,13.80
2019-03-30T18:16:10.573Z,13.60
2019-03-30T18:18:58.576Z,13.50
2019-03-30T18:21:46.368Z,13.30
2019-03-30T18:24:34.384Z,13.20
2019-03-30T18:27:22.300Z,13.00
2019-03-30T18:30:10.703Z,13.00
2019-03-30T18:32:58.605Z,12.80
2019-03-30T18:35:46.773Z,12.70
2019-03-30T18:38:36.794Z,12.60
2019-03-30T18:41:25.001Z,12.50
2019-03-30T18:44:12.977Z,12.30
2019-03-30T18:47:00.681Z,12.20
2019-03-30T18:49:48.540Z,12.00
2019-03-30T18:52:37.109Z,11.90
2019-03-30T18:55:24.818Z,11.80
2019-03-30T18:58:12.644Z,11.70
2019-03-30T19:01:00.334Z,11.60
2019-03-30T19:03:48.418Z,11.50
2019-03-30T19:06:36.120Z,11.40
2019-03-30T19:09:24.077Z,11.20
2019-03-30T19:12:11.757Z,11.10
2019-03-30T19:14:59.890Z,10.90
2019-03-30T19:17:47.712Z,10.80
2019-03-30T19:20:35.380Z,10.70
2019-03-30T19:23:22.945Z,10.50
2019-03-30T19:26:10.879Z,10.40
2019-03-30T19:28:58.701Z,10.30
2019-03-30T19:31:46.573Z,10.10
2019-03-30T19:34:34.601Z,10.00
2019-03-30T19:37:22.650Z,9.70
2019-03-30T19:40:10.866Z,9.70
2019-03-30T19:42:58.513Z,9.60
2019-03-30T19:45:46.459Z,9.50
2019-03-30T19:48:36.927Z,9.40
2019-03-30T19:51:24.742Z,9.40
2019-03-30T19:54:12.413Z,9.30
2019-03-30T19:57:00.128Z,9.20
2019-03-30T19:59:47.815Z,9.20
2019-03-30T20:02:35.546Z,9.10
2019-03-30T20:05:23.241Z,8.90
2019-03-30T20:08:12.391Z,8.80
2019-03-30T20:11:00.830Z,8.70
2019-03-30T20:13:48.600Z,8.60
2019-03-30T20:16:36.485Z,8.50
2019-03-30T20:19:24.057Z,8.30
2019-03-30T20:22:11.785Z,8.30
2019-03-30T20:24:59.532Z,8.20
2019-03-30T20:27:47.275Z,8.20
2019-03-30T20:30:34.973Z,8.10
2019-03-30T20:33:22.952Z,8.00
2019-03-30T20:36:10.578Z,7.90
2019-03-30T20:38:58.574Z,7.80
2019-03-30T20:41:46.561Z,7.70
2019-03-30T20:44:34.577Z,7.60
2019-03-30T20:47:22.360Z,7.50
2019-03-30T20:50:10.549Z,7.50
2019-03-30T20:52:58.285Z,7.40
2019-03-30T20:55:46.488Z,7.30
2019-03-30T20:58:34.397Z,7.30
2019-03-30T21:01:22.122Z,7.40
2019-03-30T21:04:10.035Z,7.40
2019-03-30T21:06:57.905Z,7.40
2019-03-30T21:09:45.851Z,7.40
2019-03-30T21:12:33.777Z,7.50
2019-03-30T21:15:21.481Z,7.40
2019-03-30T21:18:09.322Z,7.30
2019-03-30T21:20:57.189Z,7.10
2019-03-30T21:23:45.025Z,7.00
2019-03-30T21:26:33.005Z,6.80
2019-03-30T21:29:20.834Z,6.80
2019-03-30T21:32:08.489Z,6.70
2019-03-30T21:34:56.394Z,6.70
2019-03-30T21:37:43.972Z,6.60
2019-03-30T21:40:31.777Z,6.50
2019-03-30T21:43:19.760Z,6.50
2019-03-30T21:46:07.618Z,6.70
2019-03-30T21:48:55.271Z,6.80
2019-03-30T21:51:42.913Z,6.60
2019-03-30T21:54:30.803Z,6.30
2019-03-30T21:57:18.526Z,6.20
2019-03-30T22:00:10.404Z,6.20
2019-03-30T22:02:57.868Z,6.10
2019-03-30T22:05:45.765Z,6.10
2019-03-30T22:08:33.620Z,6.00
2019-03-30T22:11:21.381Z,5.90
2019-03-30T22:14:09.614Z,5.80
2019-03-30T22:16:57.461Z,5.80
2019-03-30T22:19:45.393Z,5.70
2019-03-30T22:22:33.142Z,5.60
2019-03-30T22:25:21.061Z,5.60
2019-03-30T22:28:08.993Z,5.50
2019-03-30T22:30:56.893Z,5.40
2019-03-30T22:33:44.721Z,5.30
2019-03-30T22:36:32.525Z,5.30
2019-03-30T22:39:20.434Z,5.20
2019-03-30T22:42:08.137Z,5.10
2019-03-30T22:44:55.940Z,5.10
2019-03-30T22:47:43.866Z,5.00
2019-03-30T22:50:31.781Z,5.00
2019-03-30T22:53:19.485Z,4.90
2019-03-30T22:56:07.317Z,4.90
2019-03-30T22:58:55.121Z,4.80
2019-03-30T23:01:43.117Z,4.70
2019-03-30T23:04:30.728Z,4.70
2019-03-30T23:07:18.637Z,4.60
2019-03-30T23:10:07.376Z,4.60
2019-03-30T23:12:54.970Z,4.60
2019-03-30T23:15:42.904Z,4.60
2019-03-30T23:18:30.885Z,4.50
2019-03-30T23:21:18.737Z,4.50
2019-03-30T23:24:06.570Z,4.40
2019-03-30T23:26:54.221Z,4.40
2019-03-30T23:29:41.968Z,4.30
2019-03-30T23:32:29.997Z,4.30
2019-03-30T23:35:17.888Z,4.30
2019-03-30T23:38:05.557Z,4.20
2019-03-30T23:40:53.603Z,4.20
2019-03-30T23:43:41.225Z,4.10
2019-03-30T23:46:28.968Z,4.10
2019-03-30T23:49:16.898Z,4.00
2019-03-30T23:52:04.554Z,4.00
2019-03-30T23:54:52.176Z,4.00
2019-03-30T23:57:40.373Z,3.90
